createdAt,value
2022-08-14T00:01:10.042Z,9.70
2022-08-14T00:03:37.750Z,10.00
2022-08-14T00:06:25.332Z,9.93
2022-08-14T00:08:59.252Z,9.25
2022-08-14T00:11:31.231Z,9.30
2022-08-14T00:14:01.958Z,9.63
2022-08-14T00:16:40.452Z,9.68
2022-08-14T00:19:19.258Z,9.50
2022-08-14T00:21:48.008Z,9.85
2022-08-14T00:24:23.311Z,10.80
2022-08-14T00:26:56.646Z,10.15
2022-08-14T00:29:25.681Z,10.10
2022-08-14T00:31:56.567Z,10.23
2022-08-14T00:34:37.298Z,10.50
2022-08-14T00:37:13.382Z,10.00
2022-08-14T00:39:40.563Z,8.98
2022-08-14T00:42:52.647Z,9.80
2022-08-14T00:44:57.205Z,9.48
2022-08-14T00:47:27.608Z,9.80
2022-08-14T00:49:58.550Z,9.93
2022-08-14T00:52:26.229Z,9.65
2022-08-14T00:54:57.900Z,9.50
2022-08-14T00:57:31.355Z,10.10
2022-08-14T00:59:58.517Z,9.43
2022-08-14T01:02:27.659Z,9.70
2022-08-14T01:05:01.402Z,10.40
2022-08-14T01:07:41.471Z,9.73
2022-08-14T01:10:18.013Z,9.82
2022-08-14T01:12:45.493Z,9.55
2022-08-14T01:15:16.978Z,10.45
2022-08-14T01:18:02.716Z,10.10
2022-08-14T01:20:54.968Z,10.18
2022-08-14T01:23:24.083Z,10.35
2022-08-14T01:26:11.675Z,10.60
2022-08-14T01:28:54.204Z,10.15
2022-08-14T01:31:26.210Z,10.05
2022-08-14T01:35:17.699Z,9.90
2022-08-14T01:36:47.447Z,9.95
2022-08-14T01:39:16.304Z,10.05
2022-08-14T01:41:48.554Z,9.80
2022-08-14T01:44:31.202Z,9.90
2022-08-14T01:47:16.452Z,10.40
2022-08-14T01:49:59.892Z,10.40
2022-08-14T01:52:34.347Z,10.20
2022-08-14T01:55:20.800Z,10.63
2022-08-14T01:58:00.751Z,10.60
2022-08-14T02:00:38.996Z,10.10
2022-08-14T02:03:06.940Z,9.65
2022-08-14T02:05:38.089Z,10.30
2022-08-14T02:08:09.839Z,9.82
2022-08-14T02:10:47.376Z,9.65
2022-08-14T02:13:16.549Z,9.70
2022-08-14T02:15:44.652Z,9.45
2022-08-14T02:18:15.293Z,9.73
2022-08-14T02:20:42.629Z,9.35
2022-08-14T02:23:09.622Z,9.50
2022-08-14T02:25:39.342Z,10.05
2022-08-14T02:28:22.113Z,9.13
2022-08-14T02:30:53.221Z,10.03
2022-08-14T02:33:22.782Z,10.07
2022-08-14T02:35:53.566Z,10.43
2022-08-14T02:38:29.480Z,10.43
2022-08-14T02:40:58.846Z,9.50
2022-08-14T02:43:37.156Z,9.95
2022-08-14T02:46:13.391Z,9.95
2022-08-14T02:49:03.907Z,9.90
2022-08-14T02:51:32.138Z,10.57
2022-08-14T02:54:01.918Z,9.77
2022-08-14T02:57:15.784Z,10.40
2022-08-14T02:59:18.266Z,9.65
2022-08-14T03:01:50.961Z,9.23
2022-08-14T03:04:22.543Z,10.57
2022-08-14T03:06:57.606Z,9.52
2022-08-14T03:10:24.833Z,9.57
2022-08-14T03:12:17.771Z,10.57
2022-08-14T03:14:54.159Z,9.18
2022-08-14T03:17:21.351Z,9.00
2022-08-14T03:19:51.445Z,8.93
2022-08-14T03:22:18.518Z,9.43
2022-08-14T03:24:45.423Z,9.38
2022-08-14T03:27:14.241Z,9.77
2022-08-14T03:29:41.487Z,10.13
2022-08-14T03:32:09.185Z,9.25
2022-08-14T03:34:48.137Z,9.60
2022-08-14T03:37:39.395Z,10.25
2022-08-14T03:40:17.618Z,10.13
2022-08-14T03:42:45.829Z,10.45
2022-08-14T03:45:25.083Z,9.63
2022-08-14T03:48:02.254Z,10.13
2022-08-14T03:50:31.288Z,9.82
2022-08-14T03:53:03.426Z,9.57
2022-08-14T03:55:30.995Z,9.90
2022-08-14T03:58:00.367Z,10.25
2022-08-14T04:00:42.995Z,9.50
2022-08-14T04:03:18.202Z,9.82
2022-08-14T04:05:50.990Z,9.70
2022-08-14T04:08:30.248Z,9.88
2022-08-14T04:11:01.598Z,10.52
2022-08-14T04:13:31.702Z,10.10
2022-08-14T04:16:05.010Z,9.25
2022-08-14T04:18:33.861Z,9.68
2022-08-14T04:21:01.314Z,9.52
2022-08-14T04:23:31.851Z,9.85
2022-08-14T04:26:08.236Z,9.43
2022-08-14T04:29:07.408Z,9.65
2022-08-14T04:32:57.772Z,9.70
2022-08-14T04:34:20.813Z,9.32
2022-08-14T04:37:10.529Z,9.38
2022-08-14T04:39:57.149Z,9.38
2022-08-14T04:42:47.596Z,9.27
2022-08-14T04:45:21.169Z,8.93
2022-08-14T04:48:06.584Z,8.50
2022-08-14T04:50:54.062Z,9.57
2022-08-14T04:53:26.386Z,9.10
2022-08-14T04:56:03.347Z,8.90
2022-08-14T04:58:34.218Z,8.50
2022-08-14T05:01:03.899Z,9.20
2022-08-14T05:03:33.501Z,8.50
2022-08-14T05:06:03.237Z,8.80
2022-08-14T05:08:57.081Z,8.80
2022-08-14T05:11:19.875Z,8.55
2022-08-14T05:14:16.852Z,8.35
2022-08-14T05:19:25.341Z,7.80
2022-08-14T05:24:29.201Z,7.78
2022-08-14T05:26:57.354Z,7.60
2022-08-14T05:29:26.568Z,7.80
2022-08-14T05:31:58.113Z,7.25
2022-08-14T05:34:31.968Z,7.28
2022-08-14T05:37:02.370Z,7.28
2022-08-14T05:39:31.668Z,6.95
2022-08-14T05:42:00.575Z,7.15
2022-08-14T05:44:30.832Z,7.05
2022-08-14T05:46:58.920Z,7.10
2022-08-14T05:49:33.599Z,7.03
2022-08-14T05:52:02.374Z,7.00
2022-08-14T05:54:35.582Z,7.12
2022-08-14T05:57:05.014Z,7.18
2022-08-14T05:59:38.765Z,7.15
2022-08-14T06:02:10.374Z,6.82
2022-08-14T06:04:49.336Z,7.65
2022-08-14T06:07:16.642Z,6.87
2022-08-14T06:09:51.011Z,6.78
2022-08-14T06:12:55.933Z,6.60
2022-08-14T06:15:08.280Z,6.93
2022-08-14T06:17:55.862Z,6.65
2022-08-14T06:20:26.564Z,6.95
2022-08-14T06:22:55.589Z,6.70
2022-08-14T06:25:25.057Z,6.32
2022-08-14T06:27:53.643Z,6.50
2022-08-14T06:30:24.196Z,6.45
2022-08-14T06:33:08.933Z,6.37
2022-08-14T06:35:36.068Z,6.25
2022-08-14T06:38:04.440Z,6.93
2022-08-14T06:40:36.972Z,6.47
2022-08-14T06:43:11.921Z,6.28
2022-08-14T06:45:50.114Z,6.15
2022-08-14T06:48:24.091Z,5.95
2022-08-14T06:50:52.864Z,6.60
2022-08-14T06:53:21.462Z,6.18
2022-08-14T06:55:57.918Z,5.62
2022-08-14T06:58:31.413Z,5.57
2022-08-14T07:01:24.830Z,6.12
2022-08-14T07:04:24.178Z,5.95
2022-08-14T07:06:55.566Z,6.30
2022-08-14T07:09:27.861Z,6.18
2022-08-14T07:11:55.109Z,5.95
2022-08-14T07:14:23.360Z,5.75
2022-08-14T07:16:50.283Z,6.32
2022-08-14T07:19:20.769Z,5.82
2022-08-14T07:21:48.550Z,5.60
2022-08-14T07:24:26.171Z,6.10
2022-08-14T07:26:58.597Z,6.15
2022-08-14T07:29:28.986Z,5.45
2022-08-14T07:31:56.192Z,5.20
2022-08-14T07:34:36.586Z,5.65
2022-08-14T07:37:08.203Z,5.28
2022-08-14T07:39:36.989Z,5.28
2022-08-14T07:42:06.400Z,5.30
2022-08-14T07:44:46.454Z,5.35
2022-08-14T07:47:17.496Z,5.53
2022-08-14T07:50:01.875Z,4.62
2022-08-14T07:52:30.517Z,5.45
2022-08-14T07:54:59.348Z,5.00
2022-08-14T07:57:27.649Z,5.03
2022-08-14T07:59:54.599Z,5.32
2022-08-14T08:02:21.997Z,4.97
2022-08-14T08:04:54.386Z,5.37
2022-08-14T08:07:23.479Z,5.50
2022-08-14T08:09:54.790Z,4.60
2022-08-14T08:12:26.149Z,4.10
2022-08-14T08:15:03.265Z,5.45
2022-08-14T08:17:38.526Z,5.20
2022-08-14T08:20:20.265Z,5.80
2022-08-14T08:22:49.737Z,5.65
2022-08-14T08:25:23.946Z,5.62
2022-08-14T08:28:08.997Z,5.62
2022-08-14T08:31:04.393Z,5.03
2022-08-14T08:33:37.350Z,5.50
2022-08-14T08:36:12.688Z,5.15
2022-08-14T08:39:15.496Z,5.90
2022-08-14T08:41:31.728Z,5.82
2022-08-14T08:44:17.471Z,5.57
2022-08-14T08:46:58.525Z,5.18
2022-08-14T08:49:59.736Z,4.68
2022-08-14T08:52:31.886Z,4.78
2022-08-14T08:55:00.786Z,5.70
2022-08-14T08:57:28.121Z,5.30
2022-08-14T08:59:58.633Z,6.07
2022-08-14T09:02:27.473Z,5.43
2022-08-14T09:05:02.278Z,6.22
2022-08-14T09:07:29.264Z,5.95
2022-08-14T09:09:59.121Z,6.03
2022-08-14T09:12:32.606Z,5.93
2022-08-14T09:15:11.321Z,5.72
2022-08-14T09:17:41.517Z,5.80
2022-08-14T09:20:11.759Z,5.68
2022-08-14T09:22:42.290Z,5.07
2022-08-14T09:25:15.745Z,5.00
2022-08-14T09:27:42.814Z,5.78
2022-08-14T09:30:31.099Z,5.28
2022-08-14T09:33:11.144Z,5.55
2022-08-14T09:35:56.530Z,5.50
2022-08-14T09:38:42.579Z,5.53
2022-08-14T09:42:21.022Z,5.57
2022-08-14T09:44:49.666Z,5.28
2022-08-14T09:47:17.353Z,5.47
2022-08-14T09:49:52.140Z,5.20
2022-08-14T09:52:23.633Z,5.50
2022-08-14T09:55:00.971Z,5.32
2022-08-14T09:57:39.965Z,5.43
2022-08-14T10:00:28.674Z,5.97
2022-08-14T10:03:05.763Z,5.37
2022-08-14T10:05:38.020Z,5.62
2022-08-14T10:08:25.226Z,6.12
2022-08-14T10:10:57.139Z,6.07
2022-08-14T10:13:42.836Z,6.05
2022-08-14T10:16:27.389Z,5.50
2022-08-14T10:19:07.145Z,5.95
2022-08-14T10:21:38.664Z,6.15
2022-08-14T10:24:09.085Z,5.87
2022-08-14T10:26:37.019Z,5.40
2022-08-14T10:29:20.275Z,5.28
2022-08-14T10:31:59.261Z,5.97
2022-08-14T10:34:36.606Z,6.00
2022-08-14T10:37:14.816Z,5.53
2022-08-14T10:39:51.171Z,5.50
2022-08-14T10:42:40.459Z,5.90
2022-08-14T10:45:22.301Z,5.25
2022-08-14T10:48:08.834Z,5.65
2022-08-14T10:50:50.547Z,5.90
2022-08-14T10:53:39.799Z,5.25
2022-08-14T10:56:21.778Z,5.78
2022-08-14T10:59:02.805Z,5.80
2022-08-14T11:01:41.443Z,5.93
2022-08-14T11:04:25.949Z,5.85
2022-08-14T11:06:56.269Z,6.30
2022-08-14T11:09:23.562Z,5.62
2022-08-14T11:12:34.048Z,5.57
2022-08-14T11:14:59.392Z,6.03
2022-08-14T11:17:32.137Z,5.90
2022-08-14T11:20:01.129Z,5.60
2022-08-14T11:22:52.486Z,5.75
2022-08-14T11:25:17.219Z,6.00
2022-08-14T11:27:46.188Z,5.40
2022-08-14T11:30:50.559Z,5.80
2022-08-14T11:33:09.409Z,5.75
2022-08-14T11:35:47.365Z,5.75
2022-08-14T11:38:14.761Z,5.80
2022-08-14T11:40:47.088Z,5.37
2022-08-14T11:43:15.452Z,5.43
2022-08-14T11:45:48.352Z,5.62
2022-08-14T11:49:01.567Z,5.57
2022-08-14T11:51:24.132Z,5.50
2022-08-14T11:53:55.549Z,5.75
2022-08-14T11:56:25.233Z,5.40
2022-08-14T11:58:54.463Z,5.53
2022-08-14T12:01:31.067Z,5.40
2022-08-14T12:04:32.323Z,6.10
2022-08-14T12:07:01.434Z,5.70
2022-08-14T12:09:35.997Z,5.43
2022-08-14T12:12:35.016Z,5.65
2022-08-14T12:15:04.520Z,5.43
2022-08-14T12:17:34.244Z,5.75
2022-08-14T12:20:15.347Z,5.78
2022-08-14T12:22:56.990Z,5.68
2022-08-14T12:25:24.834Z,4.55
2022-08-14T12:27:59.052Z,5.65
2022-08-14T12:30:35.886Z,5.18
2022-08-14T12:33:09.305Z,5.35
2022-08-14T12:35:43.807Z,5.22
2022-08-14T12:38:17.305Z,5.65
2022-08-14T12:40:50.822Z,5.40
2022-08-14T12:43:19.906Z,6.00
2022-08-14T12:45:55.226Z,5.57
2022-08-14T12:48:31.481Z,5.30
2022-08-14T12:50:59.353Z,5.72
2022-08-14T12:53:38.645Z,5.72
2022-08-14T12:56:22.485Z,5.75
2022-08-14T12:58:57.323Z,5.72
2022-08-14T13:01:31.157Z,5.22
2022-08-14T13:04:13.340Z,5.65
2022-08-14T13:06:50.850Z,5.10
2022-08-14T13:09:19.262Z,5.22
2022-08-14T13:11:59.333Z,5.55
2022-08-14T13:14:38.755Z,5.68
2022-08-14T13:17:05.816Z,5.62
2022-08-14T13:19:34.778Z,5.57
2022-08-14T13:22:09.343Z,5.50
2022-08-14T13:24:39.472Z,5.50
2022-08-14T13:27:10.048Z,5.37
2022-08-14T13:29:46.603Z,5.87
2022-08-14T13:34:45.541Z,5.35
2022-08-14T13:37:15.333Z,5.57
2022-08-14T13:39:56.195Z,5.28
2022-08-14T13:42:27.981Z,5.25
2022-08-14T13:45:00.171Z,5.40
2022-08-14T13:47:30.319Z,5.60
2022-08-14T13:50:04.899Z,5.30
2022-08-14T13:52:53.465Z,5.20
2022-08-14T13:55:24.180Z,5.32
2022-08-14T13:58:03.825Z,5.35
2022-08-14T14:00:53.070Z,5.50
2022-08-14T14:03:23.963Z,5.65
2022-08-14T14:05:54.587Z,5.62
2022-08-14T14:08:43.397Z,5.12
2022-08-14T14:11:11.225Z,5.43
2022-08-14T14:13:44.804Z,5.30
2022-08-14T14:16:15.450Z,5.10
2022-08-14T14:18:52.555Z,5.35
2022-08-14T14:21:21.877Z,5.30
2022-08-14T14:23:49.484Z,5.20
2022-08-14T14:26:24.010Z,5.05
2022-08-14T14:28:57.807Z,5.07
2022-08-14T14:31:29.769Z,5.57
2022-08-14T14:34:19.970Z,5.40
2022-08-14T14:36:57.054Z,5.12
2022-08-14T14:39:27.561Z,5.28
2022-08-14T14:41:59.712Z,5.45
2022-08-14T14:44:42.544Z,5.40
2022-08-14T14:47:11.815Z,5.20
2022-08-14T14:49:50.919Z,5.62
2022-08-14T14:52:27.638Z,5.70
2022-08-14T14:54:59.367Z,5.30
2022-08-14T14:57:34.833Z,5.53
2022-08-14T15:00:02.746Z,5.30
2022-08-14T15:02:37.212Z,5.25
2022-08-14T15:05:05.598Z,4.60
2022-08-14T15:07:33.087Z,4.85
2022-08-14T15:10:00.740Z,5.18
2022-08-14T15:12:55.574Z,4.70
2022-08-14T15:17:43.448Z,4.97
2022-08-14T15:20:17.581Z,4.82
2022-08-14T15:23:08.019Z,5.40
2022-08-14T15:25:43.992Z,5.32
2022-08-14T15:28:21.339Z,4.80
2022-08-14T15:30:57.805Z,5.15
2022-08-14T15:34:00.912Z,5.03
2022-08-14T15:36:31.581Z,5.00
2022-08-14T15:38:59.523Z,5.35
2022-08-14T15:41:26.871Z,5.07
2022-08-14T15:44:01.122Z,5.37
2022-08-14T15:46:43.600Z,5.03
2022-08-14T15:49:12.790Z,5.22
2022-08-14T15:51:42.333Z,4.82
2022-08-14T15:54:11.481Z,5.22
2022-08-14T15:56:43.020Z,5.18
2022-08-14T15:59:13.103Z,5.60
2022-08-14T16:01:54.169Z,5.95
2022-08-14T16:04:24.096Z,5.07
2022-08-14T16:06:55.580Z,4.97
2022-08-14T16:09:23.197Z,4.95
2022-08-14T16:11:54.022Z,5.80
2022-08-14T16:14:21.993Z,5.50
2022-08-14T16:16:59.927Z,5.15
2022-08-14T16:19:28.359Z,5.28
2022-08-14T16:22:02.191Z,5.20
2022-08-14T16:25:02.029Z,5.12
2022-08-14T16:27:38.802Z,5.05
2022-08-14T16:30:25.261Z,5.18
2022-08-14T16:32:57.001Z,5.18
2022-08-14T16:35:42.984Z,5.50
2022-08-14T16:38:44.766Z,4.62
2022-08-14T16:41:23.059Z,5.37
2022-08-14T16:43:53.777Z,5.28
2022-08-14T16:46:27.338Z,5.10
2022-08-14T16:48:58.405Z,5.03
2022-08-14T16:51:27.877Z,5.00
2022-08-14T16:53:59.010Z,5.10
2022-08-14T16:56:30.954Z,5.22
2022-08-14T16:59:20.209Z,5.32
2022-08-14T17:01:58.389Z,5.00
2022-08-14T17:04:30.549Z,4.97
2022-08-14T17:07:01.393Z,5.62
2022-08-14T17:09:43.497Z,5.15
2022-08-14T17:12:28.453Z,6.90
2022-08-14T17:15:14.968Z,7.47
2022-08-14T17:17:57.466Z,6.85
2022-08-14T17:20:54.205Z,6.87
2022-08-14T17:23:13.675Z,6.50
2022-08-14T17:25:50.986Z,6.32
2022-08-14T17:28:50.470Z,6.18
2022-08-14T17:31:12.563Z,6.37
2022-08-14T17:33:44.602Z,6.22
2022-08-14T17:36:22.615Z,5.90
2022-08-14T17:39:14.107Z,6.10
2022-08-14T17:41:45.376Z,7.50
2022-08-14T17:44:33.333Z,8.02
2022-08-14T17:47:06.246Z,8.77
2022-08-14T17:49:36.735Z,8.30
2022-08-14T17:52:17.055Z,7.80
2022-08-14T17:54:52.640Z,7.72
2022-08-14T17:57:28.430Z,8.05
2022-08-14T17:59:57.189Z,8.45
2022-08-14T18:02:31.450Z,8.15
2022-08-14T18:05:00.253Z,6.28
2022-08-14T18:07:59.695Z,6.55
2022-08-14T18:10:52.563Z,6.00
2022-08-14T18:13:10.621Z,6.15
2022-08-14T18:15:41.275Z,5.95
2022-08-14T18:18:11.959Z,5.90
2022-08-14T18:21:24.391Z,6.30
2022-08-14T18:23:26.919Z,5.53
2022-08-14T18:25:56.453Z,5.80
2022-08-14T18:28:51.601Z,5.65
2022-08-14T18:31:20.367Z,5.50
2022-08-14T18:33:59.465Z,5.57
2022-08-14T18:36:47.235Z,5.45
2022-08-14T18:39:32.669Z,5.28
2022-08-14T18:42:23.438Z,5.87
2022-08-14T18:44:51.136Z,5.37
2022-08-14T18:47:21.157Z,5.87
2022-08-14T18:49:57.990Z,5.72
2022-08-14T18:52:34.436Z,5.70
2022-08-14T18:55:20.926Z,5.60
2022-08-14T18:58:20.738Z,5.00
2022-08-14T19:00:56.213Z,5.10
2022-08-14T19:03:36.293Z,5.87
2022-08-14T19:06:08.993Z,6.03
2022-08-14T19:08:43.885Z,6.25
2022-08-14T19:11:34.413Z,6.62
2022-08-14T19:14:05.272Z,5.53
2022-08-14T19:16:43.028Z,5.87
2022-08-14T19:19:15.549Z,5.70
2022-08-14T19:21:55.471Z,5.72
2022-08-14T19:24:34.363Z,5.85
2022-08-14T19:27:19.724Z,5.32
2022-08-14T19:29:52.089Z,5.30
2022-08-14T19:32:41.121Z,4.80
2022-08-14T19:35:18.179Z,5.22
2022-08-14T19:37:52.032Z,5.47
2022-08-14T19:40:42.706Z,5.10
2022-08-14T19:43:10.621Z,5.22
2022-08-14T19:45:39.014Z,5.53
2022-08-14T19:48:14.102Z,5.50
2022-08-14T19:50:45.073Z,5.75
2022-08-14T19:53:17.629Z,5.60
2022-08-14T19:56:00.848Z,5.50
2022-08-14T19:58:54.727Z,5.22
2022-08-14T20:01:36.765Z,5.22
2022-08-14T20:04:45.280Z,5.32
2022-08-14T20:06:56.161Z,5.18
2022-08-14T20:11:06.479Z,5.53
2022-08-14T20:12:29.176Z,5.47
2022-08-14T20:15:18.028Z,6.00
2022-08-14T20:17:52.904Z,5.80
2022-08-14T20:20:31.732Z,5.50
2022-08-14T20:23:11.266Z,5.00
2022-08-14T20:25:45.476Z,5.32
2022-08-14T20:28:32.630Z,5.90
2022-08-14T20:31:15.723Z,5.72
2022-08-14T20:34:03.347Z,5.32
2022-08-14T20:36:30.486Z,5.25
2022-08-14T20:38:58.581Z,5.47
2022-08-14T20:41:25.821Z,5.90
2022-08-14T20:44:20.694Z,5.70
2022-08-14T20:46:48.072Z,6.00
2022-08-14T20:49:18.699Z,5.32
2022-08-14T20:51:58.622Z,5.60
2022-08-14T20:54:34.530Z,5.37
2022-08-14T20:57:15.775Z,5.53
2022-08-14T20:59:50.097Z,6.20
2022-08-14T21:02:46.379Z,5.97
2022-08-14T21:05:20.378Z,5.70
2022-08-14T21:07:51.090Z,5.72
2022-08-14T21:10:36.139Z,6.25
2022-08-14T21:14:09.285Z,5.95
2022-08-14T21:16:32.908Z,5.82
2022-08-14T21:18:59.039Z,5.70
2022-08-14T21:21:40.722Z,5.47
2022-08-14T21:24:38.580Z,5.78
2022-08-14T21:27:12.143Z,5.95
2022-08-14T21:29:54.356Z,6.10
2022-08-14T21:32:34.772Z,5.53
2022-08-14T21:35:08.019Z,6.00
2022-08-14T21:37:46.260Z,5.82
2022-08-14T21:40:35.379Z,5.47
2022-08-14T21:43:05.133Z,5.93
2022-08-14T21:45:35.742Z,5.60
2022-08-14T21:48:10.564Z,5.57
2022-08-14T21:51:01.480Z,5.68
2022-08-14T21:53:31.094Z,5.87
2022-08-14T21:55:58.453Z,5.72
2022-08-14T21:58:52.126Z,6.05
2022-08-14T22:01:16.399Z,6.20
2022-08-14T22:03:47.505Z,5.72
2022-08-14T22:06:22.156Z,6.25
2022-08-14T22:08:56.720Z,6.18
2022-08-14T22:11:23.701Z,6.25
2022-08-14T22:13:51.901Z,6.22
2022-08-14T22:17:01.791Z,6.55
2022-08-14T22:19:13.764Z,6.12
2022-08-14T22:21:44.038Z,5.70
2022-08-14T22:24:12.728Z,6.05
2022-08-14T22:27:01.434Z,6.10
2022-08-14T22:29:29.279Z,6.22
2022-08-14T22:31:57.377Z,5.97
2022-08-14T22:34:24.363Z,6.28
2022-08-14T22:36:56.315Z,6.18
2022-08-14T22:40:16.858Z,6.20
2022-08-14T22:42:21.210Z,5.75
2022-08-14T22:44:51.567Z,6.35
2022-08-14T22:47:25.076Z,5.80
2022-08-14T22:50:32.127Z,6.53
2022-08-14T22:52:40.508Z,6.70
2022-08-14T22:55:16.674Z,6.20
2022-08-14T22:57:44.093Z,6.18
2022-08-14T23:00:18.436Z,5.90
2022-08-14T23:02:46.839Z,6.62
2022-08-14T23:05:15.123Z,6.20
2022-08-14T23:08:56.747Z,6.30
2022-08-14T23:13:02.959Z,6.00
2022-08-14T23:15:30.489Z,5.87
2022-08-14T23:17:57.989Z,6.15
2022-08-14T23:20:29.492Z,6.00
2022-08-14T23:22:57.347Z,6.05
2022-08-14T23:25:44.668Z,6.65
2022-08-14T23:28:34.527Z,5.93
2022-08-14T23:31:08.407Z,6.22
2022-08-14T23:33:45.644Z,6.00
2022-08-14T23:36:28.335Z,6.53
2022-08-14T23:39:00.424Z,6.03
2022-08-14T23:41:27.405Z,6.20
2022-08-14T23:44:14.994Z,6.43
2022-08-14T23:46:44.213Z,6.18
2022-08-14T23:49:12.615Z,6.53
2022-08-14T23:51:39.626Z,6.55
2022-08-14T23:54:48.408Z,6.30
2022-08-14T23:57:02.614Z,6.72
2022-08-14T23:59:30.149Z,6.03
